sensor_id;sensor_type;location;lat;lon;timestamp;pressure;altitude;pressure_sealevel;temperature;humidity
69667;BME280;66534;52.370;4.832;2023-03-01T00:00:00;103299.91;;;3.15;100.00
69667;BME280;66534;52.370;4.832;2023-03-01T00:00:31;103293.00;;;3.16;100.00
69667;BME280;66534;52.370;4.832;2023-03-01T00:01:06;103292.94;;;3.13;100.00
69667;BME280;66534;52.370;4.832;2023-03-01T00:01:38;103296.06;;;3.34;100.00
69667;BME280;66534;52.370;4.832;2023-03-01T00:02:12;103296.19;;;3.39;100.00
69667;BME280;66534;52.370;4.832;2023-03-01T00:02:42;103290.94;;;3.37;100.00
69667;BME280;66534;52.370;4.832;2023-03-01T00:03:12;103292.69;;;3.37;100.00
69667;BME280;66534;52.370;4.832;2023-03-01T00:03:43;103288.94;;;3.25;100.00
69667;BME280;66534;52.370;4.832;2023-03-01T00:04:13;103287.69;;;3.44;100.00
69667;BME280;66534;52.370;4.832;2023-03-01T00:04:44;103291.34;;;3.53;100.00
69667;BME280;66534;52.370;4.832;2023-03-01T00:05:15;103289.00;;;3.29;100.00
69667;BME280;66534;52.370;4.832;2023-03-01T00:05:46;103293.47;;;3.34;100.00
69667;BME280;66534;52.370;4.832;2023-03-01T00:06:17;103285.19;;;3.49;100.00
69667;BME280;66534;52.370;4.832;2023-03-01T00:06:48;103281.81;;;3.52;100.00
69667;BME280;66534;52.370;4.832;2023-03-01T00:07:19;103287.00;;;3.52;100.00
69667;BME280;66534;52.370;4.832;2023-03-01T00:07:52;103283.75;;;3.60;100.00
69667;BME280;66534;52.370;4.832;2023-03-01T00:08:23;103280.28;;;3.60;100.00
69667;BME280;66534;52.370;4.832;2023-03-01T00:08:56;103284.53;;;3.58;100.00
69667;BME280;66534;52.370;4.832;2023-03-01T00:09:26;103285.47;;;3.61;100.00
69667;BME280;66534;52.370;4.832;2023-03-01T00:09:56;103285.16;;;3.47;100.00
69667;BME280;66534;52.370;4.832;2023-03-01T00:10:27;103286.16;;;3.54;100.00
69667;BME280;66534;52.370;4.832;2023-03-01T00:11:04;103283.13;;;3.72;100.00
69667;BME280;66534;52.370;4.832;2023-03-01T00:11:35;103280.28;;;3.60;100.00
69667;BME280;66534;52.370;4.832;2023-03-01T00:12:06;103281.84;;;3.55;100.00
69667;BME280;66534;52.370;4.832;2023-03-01T00:12:37;103288.84;;;3.57;100.00
69667;BME280;66534;52.370;4.832;2023-03-01T00:13:07;103287.28;;;3.64;100.00
69667;BME280;66534;52.370;4.832;2023-03-01T00:13:38;103280.31;;;3.63;100.00
69667;BME280;66534;52.370;4.832;2023-03-01T00:14:09;103286.09;;;3.51;100.00
69667;BME280;66534;52.370;4.832;2023-03-01T00:14:40;103283.44;;;3.48;100.00
69667;BME280;66534;52.370;4.832;2023-03-01T00:15:10;103287.88;;;3.52;100.00
69667;BME280;66534;52.370;4.832;2023-03-01T00:15:41;103285.16;;;3.47;100.00
69667;BME280;66534;52.370;4.832;2023-03-01T00:16:16;103282.69;;;3.54;100.00
69667;BME280;66534;52.370;4.832;2023-03-01T00:16:52;103282.63;;;3.50;100.00
69667;BME280;66534;52.370;4.832;2023-03-01T00:17:22;103280.13;;;3.55;100.00
69667;BME280;66534;52.370;4.832;2023-03-01T00:17:52;103286.75;;;3.42;100.00
69667;BME280;66534;52.370;4.832;2023-03-01T00:18:23;103283.84;;;3.65;100.00
69667;BME280;66534;52.370;4.832;2023-03-01T00:18:54;103281.31;;;3.68;100.00
69667;BME280;66534;52.370;4.832;2023-03-01T00:19:25;103279.50;;;3.64;100.00
69667;BME280;66534;52.370;4.832;2023-03-01T00:19:56;103275.19;;;3.64;100.00
69667;BME280;66534;52.370;4.832;2023-03-01T00:20:27;103266.53;;;3.65;100.00
69667;BME280;66534;52.370;4.832;2023-03-01T00:20:57;103270.88;;;3.66;100.00
69667;BME280;66534;52.370;4.832;2023-03-01T00:21:28;103276.06;;;3.65;100.00
69667;BME280;66534;52.370;4.832;2023-03-01T00:21:58;103276.75;;;3.58;100.00
69667;BME280;66534;52.370;4.832;2023-03-01T00:22:29;103275.66;;;3.48;100.00
69667;BME280;66534;52.370;4.832;2023-03-01T00:22:59;103270.28;;;3.40;100.00
69667;BME280;66534;52.370;4.832;2023-03-01T00:23:30;103275.72;;;3.51;100.00
69667;BME280;66534;52.370;4.832;2023-03-01T00:24:01;103270.13;;;3.70;100.00
69667;BME280;66534;52.370;4.832;2023-03-01T00:24:32;103274.72;;;3.84;100.00
69667;BME280;66534;52.370;4.832;2023-03-01T00:25:03;103269.78;;;3.94;100.00
69667;BME280;66534;52.370;4.832;2023-03-01T00:25:33;103271.81;;;4.08;100.00
69667;BME280;66534;52.370;4.832;2023-03-01T00:26:12;103275.56;;;3.81;100.00
69667;BME280;66534;52.370;4.832;2023-03-01T00:26:44;103276.06;;;3.66;100.00
69667;BME280;66534;52.370;4.832;2023-03-01T00:27:14;103266.38;;;3.58;100.00
69667;BME280;66534;52.370;4.832;2023-03-01T00:27:45;103268.72;;;3.47;100.00
69667;BME280;66534;52.370;4.832;2023-03-01T00:28:17;103263.06;;;3.65;100.00
69667;BME280;66534;52.370;4.832;2023-03-01T00:28:47;103272.09;;;3.81;100.00
69667;BME280;66534;52.370;4.832;2023-03-01T00:29:18;103267.91;;;3.87;100.00
69667;BME280;66534;52.370;4.832;2023-03-01T00:29:48;103272.19;;;3.85;100.00
69667;BME280;66534;52.370;4.832;2023-03-01T00:30:19;103273.38;;;3.62;100.00
69667;BME280;66534;52.370;4.832;2023-03-01T00:30:49;103271.84;;;3.71;100.00
69667;BME280;66534;52.370;4.832;2023-03-01T00:31:21;103270.66;;;3.56;100.00
69667;BME280;66534;52.370;4.832;2023-03-01T00:31:52;103272.25;;;3.50;100.00
69667;BME280;66534;52.370;4.832;2023-03-01T00:32:23;103275.06;;;3.60;100.00
69667;BME280;66534;52.370;4.832;2023-03-01T00:32:54;103271.75;;;3.67;100.00
69667;BME280;66534;52.370;4.832;2023-03-01T00:33:24;103273.47;;;3.66;100.00
69667;BME280;66534;52.370;4.832;2023-03-01T00:33:55;103270.59;;;3.54;100.00
69667;BME280;66534;52.370;4.832;2023-03-01T00:34:27;103272.31;;;3.54;100.00
69667;BME280;66534;52.370;4.832;2023-03-01T00:34:58;103273.41;;;3.63;100.00
69667;BME280;66534;52.370;4.832;2023-03-01T00:35:28;103264.06;;;3.71;100.00
69667;BME280;66534;52.370;4.832;2023-03-01T00:35:59;103265.63;;;3.63;100.00
69667;BME280;66534;52.370;4.832;2023-03-01T00:36:31;103269.13;;;3.65;100.00
69667;BME280;66534;52.370;4.832;2023-03-01T00:37:03;103276.75;;;3.58;100.00
69667;BME280;66534;52.370;4.832;2023-03-01T00:37:35;103265.47;;;3.56;100.00
69667;BME280;66534;52.370;4.832;2023-03-01T00:38:05;103274.81;;;3.49;100.00
69667;BME280;66534;52.370;4.832;2023-03-01T00:38:41;103267.31;;;3.61;100.00
69667;BME280;66534;52.370;4.832;2023-03-01T00:39:14;103272.41;;;3.57;100.00
69667;BME280;66534;52.370;4.832;2023-03-01T00:39:45;103274.50;;;3.73;100.00
69667;BME280;66534;52.370;4.832;2023-03-01T00:40:15;103266.75;;;3.74;100.00
69667;BME280;66534;52.370;4.832;2023-03-01T00:40:46;103268.22;;;3.63;100.00
69667;BME280;66534;52.370;4.832;2023-03-01T00:41:17;103262.13;;;3.61;100.00
69667;BME280;66534;52.370;4.832;2023-03-01T00:41:48;103266.00;;;3.80;100.00
69667;BME280;66534;52.370;4.832;2023-03-01T00:42:19;103268.78;;;3.88;100.00
69667;BME280;66534;52.370;4.832;2023-03-01T00:42:50;103259.16;;;3.84;100.00
69667;BME280;66534;52.370;4.832;2023-03-01T00:43:20;103265.19;;;3.81;100.00
69667;BME280;66534;52.370;4.832;2023-03-01T00:43:51;103258.25;;;3.82;100.00
69667;BME280;66534;52.370;4.832;2023-03-01T00:44:21;103260.28;;;3.95;100.00
69667;BME280;66534;52.370;4.832;2023-03-01T00:44:52;103254.22;;;3.96;100.00
69667;BME280;66534;52.370;4.832;2023-03-01T00:45:22;103262.13;;;4.00;100.00
69667;BME280;66534;52.370;4.832;2023-03-01T00:45:53;103262.69;;;3.86;100.00
69667;BME280;66534;52.370;4.832;2023-03-01T00:46:24;103256.81;;;3.94;100.00
69667;BME280;66534;52.370;4.832;2023-03-01T00:46:56;103266.44;;;4.00;100.00
69667;BME280;66534;52.370;4.832;2023-03-01T00:47:29;103255.88;;;3.92;100.00
69667;BME280;66534;52.370;4.832;2023-03-01T00:47:59;103265.66;;;4.04;100.00
69667;BME280;66534;52.370;4.832;2023-03-01T00:48:30;103260.34;;;3.98;100.00
69667;BME280;66534;52.370;4.832;2023-03-01T00:49:00;103259.56;;;4.02;100.00
69667;BME280;66534;52.370;4.832;2023-03-01T00:49:32;103258.38;;;3.86;100.00
69667;BME280;66534;52.370;4.832;2023-03-01T00:50:02;103262.78;;;3.90;100.00
69667;BME280;66534;52.370;4.832;2023-03-01T00:50:33;103260.72;;;4.15;100.00
69667;BME280;66534;52.370;4.832;2023-03-01T00:51:10;103265.22;;;4.23;100.00
69667;BME280;66534;52.370;4.832;2023-03-01T00:51:41;103263.91;;;4.02;100.00
69667;BME280;66534;52.370;4.832;2023-03-01T00:52:11;103262.81;;;3.92;100.00
69667;BME280;66534;52.370;4.832;2023-03-01T00:52:42;103262.00;;;3.94;100.00
69667;BME280;66534;52.370;4.832;2023-03-01T00:53:13;103257.03;;;4.05;100.00
69667;BME280;66534;52.370;4.832;2023-03-01T00:53:44;103259.66;;;4.07;100.00
69667;BME280;66534;52.370;4.832;2023-03-01T00:54:15;103258.03;;;4.12;100.00
69667;BME280;66534;52.370;4.832;2023-03-01T00:54:45;103259.16;;;4.23;100.00
69667;BME280;66534;52.370;4.832;2023-03-01T00:55:16;103259.16;;;4.24;100.00
69667;BME280;66534;52.370;4.832;2023-03-01T00:55:46;103259.06;;;4.18;100.00
69667;BME280;66534;52.370;4.832;2023-03-01T00:56:17;103253.88;;;4.20;100.00
69667;BME280;66534;52.370;4.832;2023-03-01T00:56:47;103257.34;;;4.19;100.00
69667;BME280;66534;52.370;4.832;2023-03-01T00:57:18;103258.81;;;4.06;100.00
69667;BME280;66534;52.370;4.832;2023-03-01T00:57:48;103258.91;;;4.11;100.00
69667;BME280;66534;52.370;4.832;2023-03-01T00:58:19;103252.06;;;4.16;100.00
69667;BME280;66534;52.370;4.832;2023-03-01T00:58:49;103249.31;;;4.08;100.00
69667;BME280;66534;52.370;4.832;2023-03-01T00:59:20;103254.66;;;4.14;100.00
69667;BME280;66534;52.370;4.832;2023-03-01T00:59:51;103251.38;;;4.24;100.00
69667;BME280;66534;52.370;4.832;2023-03-01T01:00:22;103247.19;;;4.31;100.00
69667;BME280;66534;52.370;4.832;2023-03-01T01:00:52;103249.81;;;4.33;100.00
69667;BME280;66534;52.370;4.832;2023-03-01T01:01:27;103255.19;;;4.42;100.00
69667;BME280;66534;52.370;4.832;2023-03-01T01:02:02;103251.72;;;4.41;100.00
69667;BME280;66534;52.370;4.832;2023-03-01T01:02:32;103249.19;;;4.46;100.00
69667;BME280;66534;52.370;4.832;2023-03-01T01:03:03;103250.84;;;4.41;100.00
69667;BME280;66534;52.370;4.832;2023-03-01T01:03:34;103257.53;;;4.30;100.00
69667;BME280;66534;52.370;4.832;2023-03-01T01:04:05;103251.78;;;4.44;100.00
69667;BME280;66534;52.370;4.832;2023-03-01T01:04:40;103249.13;;;4.41;100.00
69667;BME280;66534;52.370;4.832;2023-03-01T01:05:12;103249.09;;;4.40;100.00
69667;BME280;66534;52.370;4.832;2023-03-01T01:05:43;103253.88;;;4.18;100.00
69667;BME280;66534;52.370;4.832;2023-03-01T01:06:14;103250.50;;;4.24;100.00
69667;BME280;66534;52.370;4.832;2023-03-01T01:06:46;103258.16;;;4.18;100.00
69667;BME280;66534;52.370;4.832;2023-03-01T01:07:16;103256.28;;;4.11;100.00
69667;BME280;66534;52.370;4.832;2023-03-01T01:07:47;103255.44;;;4.12;100.00
69667;BME280;66534;52.370;4.832;2023-03-01T01:08:18;103257.69;;;3.96;100.00
69667;BME280;66534;52.370;4.832;2023-03-01T01:08:49;103257.81;;;4.01;100.00
69667;BME280;66534;52.370;4.832;2023-03-01T01:09:21;103260.75;;;4.18;100.00
69667;BME280;66534;52.370;4.832;2023-03-01T01:09:51;103248.78;;;4.26;100.00
69667;BME280;66534;52.370;4.832;2023-03-01T01:10:22;103260.97;;;4.29;100.00
69667;BME280;66534;52.370;4.832;2023-03-01T01:10:52;103254.91;;;4.28;100.00
69667;BME280;66534;52.370;4.832;2023-03-01T01:11:23;103247.97;;;4.27;100.00
69667;BME280;66534;52.370;4.832;2023-03-01T01:11:56;103257.25;;;4.16;100.00
69667;BME280;66534;52.370;4.832;2023-03-01T01:12:26;103253.38;;;3.95;100.00
69667;BME280;66534;52.370;4.832;2023-03-01T01:12:56;103255.00;;;3.90;100.00
69667;BME280;66534;52.370;4.832;2023-03-01T01:13:28;103256.88;;;3.97;100.00
69667;BME280;66534;52.370;4.832;2023-03-01T01:13:58;103257.00;;;4.04;100.00
69667;BME280;66534;52.370;4.832;2023-03-01T01:14:29;103252.69;;;4.04;100.00
69667;BME280;66534;52.370;4.832;2023-03-01T01:14:59;103254.38;;;4.02;100.00
69667;BME280;66534;52.370;4.832;2023-03-01T01:15:33;103254.13;;;3.90;100.00
69667;BME280;66534;52.370;4.832;2023-03-01T01:16:04;103250.47;;;3.82;100.00
69667;BME280;66534;52.370;4.832;2023-03-01T01:16:35;103255.56;;;3.77;100.00
69667;BME280;66534;52.370;4.832;2023-03-01T01:17:06;103252.16;;;3.80;100.00
69667;BME280;66534;52.370;4.832;2023-03-01T01:17:36;103247.78;;;3.77;100.00
69667;BME280;66534;52.370;4.832;2023-03-01T01:18:07;103251.47;;;3.88;100.00
69667;BME280;66534;52.370;4.832;2023-03-01T01:18:37;103255.34;;;4.06;100.00
69667;BME280;66534;52.370;4.832;2023-03-01T01:19:09;103246.09;;;4.20;100.00
69667;BME280;66534;52.370;4.832;2023-03-01T01:19:40;103250.50;;;4.24;100.00
69667;BME280;66534;52.370;4.832;2023-03-01T01:20:11;103247.28;;;3.93;100.00
69667;BME280;66534;52.370;4.832;2023-03-01T01:20:42;103245.41;;;3.88;100.00
69667;BME280;66534;52.370;4.832;2023-03-01T01:21:14;103244.44;;;3.84;100.00
69667;BME280;66534;52.370;4.832;2023-03-01T01:21:46;103246.28;;;3.88;100.00
69667;BME280;66534;52.370;4.832;2023-03-01T01:22:17;103244.25;;;3.75;100.00
69667;BME280;66534;52.370;4.832;2023-03-01T01:22:48;103243.38;;;3.73;100.00
69667;BME280;66534;52.370;4.832;2023-03-01T01:23:18;103242.81;;;3.88;100.00
69667;BME280;66534;52.370;4.832;2023-03-01T01:23:49;103241.47;;;3.66;100.00
69667;BME280;66534;52.370;4.832;2023-03-01T01:24:20;103244.00;;;3.27;100.00
69667;BME280;66534;52.370;4.832;2023-03-01T01:24:50;103245.94;;;3.35;100.00
69667;BME280;66534;52.370;4.832;2023-03-01T01:25:21;103240.09;;;3.44;100.00
69667;BME280;66534;52.370;4.832;2023-03-01T01:25:54;103246.56;;;3.61;100.00
69667;BME280;66534;52.370;4.832;2023-03-01T01:26:26;103234.53;;;3.65;100.00
69667;BME280;66534;52.370;4.832;2023-03-01T01:26:59;103239.25;;;3.84;100.00
69667;BME280;66534;52.370;4.832;2023-03-01T01:27:29;103238.53;;;3.90;100.00
69667;BME280;66534;52.370;4.832;2023-03-01T01:28:00;103234.91;;;3.82;100.00
69667;BME280;66534;52.370;4.832;2023-03-01T01:28:30;103237.56;;;3.85;100.00
69667;BME280;66534;52.370;4.832;2023-03-01T01:29:02;103232.81;;;3.67;100.00
69667;BME280;66534;52.370;4.832;2023-03-01T01:29:33;103236.34;;;3.69;100.00
69667;BME280;66534;52.370;4.832;2023-03-01T01:30:04;103232.72;;;3.62;100.00
69667;BME280;66534;52.370;4.832;2023-03-01T01:30:35;103233.56;;;3.61;100.00
69667;BME280;66534;52.370;4.832;2023-03-01T01:31:05;103231.16;;;3.69;100.00
69667;BME280;66534;52.370;4.832;2023-03-01T01:31:37;103228.47;;;3.66;100.00
69667;BME280;66534;52.370;4.832;2023-03-01T01:32:09;103223.00;;;3.52;100.00
69667;BME280;66534;52.370;4.832;2023-03-01T01:32:39;103222.88;;;3.47;100.00
69667;BME280;66534;52.370;4.832;2023-03-01T01:33:09;103224.38;;;3.38;100.00
69667;BME280;66534;52.370;4.832;2023-03-01T01:33:40;103226.41;;;3.51;100.00
69667;BME280;66534;52.370;4.832;2023-03-01T01:34:18;103219.16;;;3.36;100.00
69667;BME280;66534;52.370;4.832;2023-03-01T01:34:50;103208.97;;;3.45;100.00
69667;BME280;66534;52.370;4.832;2023-03-01T01:35:20;103218.56;;;3.48;100.00
69667;BME280;66534;52.370;4.832;2023-03-01T01:35:50;103218.84;;;3.60;100.00
69667;BME280;66534;52.370;4.832;2023-03-01T01:36:21;103217.97;;;3.60;100.00
69667;BME280;66534;52.370;4.832;2023-03-01T01:36:52;103219.72;;;3.61;100.00
69667;BME280;66534;52.370;4.832;2023-03-01T01:37:24;103216.44;;;3.68;100.00
69667;BME280;66534;52.370;4.832;2023-03-01T01:38:01;103218.78;;;3.59;100.00
69667;BME280;66534;52.370;4.832;2023-03-01T01:38:31;103218.56;;;3.48;100.00
69667;BME280;66534;52.370;4.832;2023-03-01T01:39:02;103215.09;;;3.47;100.00
69667;BME280;66534;52.370;4.832;2023-03-01T01:39:33;103218.38;;;3.39;100.00
69667;BME280;66534;52.370;4.832;2023-03-01T01:40:04;103218.69;;;3.53;100.00
69667;BME280;66534;52.370;4.832;2023-03-01T01:40:42;103212.81;;;3.61;100.00
69667;BME280;66534;52.370;4.832;2023-03-01T01:41:14;103213.97;;;3.75;100.00
69667;BME280;66534;52.370;4.832;2023-03-01T01:41:45;103211.59;;;3.85;100.00
69667;BME280;66534;52.370;4.832;2023-03-01T01:42:17;103212.81;;;3.61;100.00
69667;BME280;66534;52.370;4.832;2023-03-01T01:42:48;103212.78;;;3.60;100.00
69667;BME280;66534;52.370;4.832;2023-03-01T01:43:20;103207.63;;;3.63;100.00
69667;BME280;66534;52.370;4.832;2023-03-01T01:44:39;103209.25;;;3.58;100.00
69667;BME280;66534;52.370;4.832;2023-03-01T01:46:32;103212.44;;;3.44;100.00
69667;BME280;66534;52.370;4.832;2023-03-01T01:47:08;103213.47;;;3.15;100.00
69667;BME280;66534;52.370;4.832;2023-03-01T01:47:44;103205.59;;;3.12;100.00
69667;BME280;66534;52.370;4.832;2023-03-01T01:48:22;103211.41;;;3.02;100.00
69667;BME280;66534;52.370;4.832;2023-03-01T01:48:58;103209.59;;;2.97;100.00
69667;BME280;66534;52.370;4.832;2023-03-01T01:49:35;103210.59;;;3.04;100.00
69667;BME280;66534;52.370;4.832;2023-03-01T01:50:08;103213.25;;;3.06;100.00
69667;BME280;66534;52.370;4.832;2023-03-01T01:50:50;103205.50;;;3.07;100.00
69667;BME280;66534;52.370;4.832;2023-03-01T01:51:28;103217.31;;;2.96;100.00
69667;BME280;66534;52.370;4.832;2023-03-01T01:53:12;103214.94;;;3.05;100.00
69667;BME280;66534;52.370;4.832;2023-03-01T01:53:49;103208.09;;;3.09;100.00
69667;BME280;66534;52.370;4.832;2023-03-01T01:54:27;103209.94;;;3.13;100.00
69667;BME280;66534;52.370;4.832;2023-03-01T01:55:18;103203.66;;;3.03;100.00
69667;BME280;66534;52.370;4.832;2023-03-01T01:55:53;103208.50;;;3.25;100.00
69667;BME280;66534;52.370;4.832;2023-03-01T01:56:27;103209.34;;;3.23;100.00
69667;BME280;66534;52.370;4.832;2023-03-01T01:57:00;103207.41;;;3.14;100.00
69667;BME280;66534;52.370;4.832;2023-03-01T01:58:17;103204.72;;;3.47;100.00
69667;BME280;66534;52.370;4.832;2023-03-01T01:58:50;103200.53;;;3.16;100.00
69667;BME280;66534;52.370;4.832;2023-03-01T01:59:22;103207.03;;;3.00;100.00
69667;BME280;66534;52.370;4.832;2023-03-01T01:59:56;103217.16;;;2.90;100.00
69667;BME280;66534;52.370;4.832;2023-03-01T02:00:30;103206.56;;;2.81;100.00
69667;BME280;66534;52.370;4.832;2023-03-01T02:01:01;103204.97;;;2.86;100.00
69667;BME280;66534;52.370;4.832;2023-03-01T02:01:33;103206.88;;;2.93;100.00
69667;BME280;66534;52.370;4.832;2023-03-01T02:02:03;103209.41;;;2.91;100.00
69667;BME280;66534;52.370;4.832;2023-03-01T02:02:35;103208.38;;;3.19;100.00
69667;BME280;66534;52.370;4.832;2023-03-01T02:03:10;103210.94;;;3.18;100.00
69667;BME280;66534;52.370;4.832;2023-03-01T02:03:47;103211.09;;;3.25;100.00
69667;BME280;66534;52.370;4.832;2023-03-01T02:04:18;103202.53;;;3.28;100.00
69667;BME280;66534;52.370;4.832;2023-03-01T02:04:51;103202.31;;;3.19;100.00
69667;BME280;66534;52.370;4.832;2023-03-01T02:05:37;103207.41;;;3.14;100.00
69667;BME280;66534;52.370;4.832;2023-03-01T02:06:28;103207.16;;;3.05;100.00
69667;BME280;66534;52.370;4.832;2023-03-01T02:07:06;103206.69;;;2.85;100.00
69667;BME280;66534;52.370;4.832;2023-03-01T02:07:44;103206.69;;;2.85;100.00
69667;BME280;66534;52.370;4.832;2023-03-01T02:08:16;103201.84;;;2.99;100.00
69667;BME280;66534;52.370;4.832;2023-03-01T02:08:49;103207.16;;;3.05;100.00
69667;BME280;66534;52.370;4.832;2023-03-01T02:09:22;103203.78;;;2.73;100.00
69667;BME280;66534;52.370;4.832;2023-03-01T02:09:53;103208.28;;;2.80;100.00
69667;BME280;66534;52.370;4.832;2023-03-01T02:10:24;103208.13;;;2.75;100.00
69667;BME280;66534;52.370;4.832;2023-03-01T02:10:55;103205.38;;;2.68;100.00
69667;BME280;66534;52.370;4.832;2023-03-01T02:11:27;103205.28;;;2.65;100.00
69667;BME280;66534;52.370;4.832;2023-03-01T02:12:00;103212.31;;;2.69;100.00
69667;BME280;66534;52.370;4.832;2023-03-01T02:12:32;103217.91;;;2.53;100.00
69667;BME280;66534;52.370;4.832;2023-03-01T02:13:04;103206.88;;;2.60;100.00
69667;BME280;66534;52.370;4.832;2023-03-01T02:13:34;103213.28;;;2.41;100.00
69667;BME280;66534;52.370;4.832;2023-03-01T02:14:05;103213.53;;;2.50;100.00
69667;BME280;66534;52.370;4.832;2023-03-01T02:14:36;103207.66;;;2.57;100.00
69667;BME280;66534;52.370;4.832;2023-03-01T02:15:07;103211.22;;;2.61;100.00
69667;BME280;66534;52.370;4.832;2023-03-01T02:15:38;103202.59;;;2.62;100.00
69667;BME280;66534;52.370;4.832;2023-03-01T02:16:11;103207.06;;;2.67;100.00
69667;BME280;66534;52.370;4.832;2023-03-01T02:16:44;103208.75;;;2.65;100.00
69667;BME280;66534;52.370;4.832;2023-03-01T02:17:15;103209.84;;;2.73;100.00
69667;BME280;66534;52.370;4.832;2023-03-01T02:17:47;103206.28;;;2.70;100.00
69667;BME280;66534;52.370;4.832;2023-03-01T02:18:19;103208.88;;;2.70;100.00
69667;BME280;66534;52.370;4.832;2023-03-01T02:18:52;103207.22;;;2.72;100.00
69667;BME280;66534;52.370;4.832;2023-03-01T02:19:32;103211.56;;;2.73;100.00
69667;BME280;66534;52.370;4.832;2023-03-01T02:20:22;103212.56;;;2.80;100.00
69667;BME280;66534;52.370;4.832;2023-03-01T02:21:47;103199.78;;;2.86;100.00
69667;BME280;66534;52.370;4.832;2023-03-01T02:22:24;103200.56;;;2.83;100.00
69667;BME280;66534;52.370;4.832;2023-03-01T02:22:57;103205.34;;;3.01;100.00
69667;BME280;66534;52.370;4.832;2023-03-01T02:23:28;103204.16;;;2.88;100.00
69667;BME280;66534;52.370;4.832;2023-03-01T02:24:00;103198.28;;;2.95;100.00
69667;BME280;66534;52.370;4.832;2023-03-01T02:26:46;103195.56;;;2.89;100.00
69667;BME280;66534;52.370;4.832;2023-03-01T02:27:20;103192.97;;;2.89;100.00
69667;BME280;66534;52.370;4.832;2023-03-01T02:28:45;103188.75;;;2.94;100.00
69667;BME280;66534;52.370;4.832;2023-03-01T02:29:16;103184.97;;;2.80;100.00
69667;BME280;66534;52.370;4.832;2023-03-01T02:29:46;103192.97;;;2.91;100.00
69667;BME280;66534;52.370;4.832;2023-03-01T02:30:18;103180.09;;;2.94;100.00
69667;BME280;66534;52.370;4.832;2023-03-01T02:30:50;103188.91;;;3.00;100.00
69667;BME280;66534;52.370;4.832;2023-03-01T02:31:40;103180.03;;;2.91;100.00
69667;BME280;66534;52.370;4.832;2023-03-01T02:32:13;103179.91;;;2.86;100.00
69667;BME280;66534;52.370;4.832;2023-03-01T02:32:45;103187.69;;;2.86;100.00
69667;BME280;66534;52.370;4.832;2023-03-01T02:33:16;103184.91;;;2.79;100.00
69667;BME280;66534;52.370;4.832;2023-03-01T02:33:47;103187.59;;;2.83;100.00
69667;BME280;66534;52.370;4.832;2023-03-01T02:34:21;103188.53;;;2.85;100.00
69667;BME280;66534;52.370;4.832;2023-03-01T02:34:55;103181.34;;;2.75;100.00
69667;BME280;66534;52.370;4.832;2023-03-01T02:35:26;103184.13;;;2.81;100.00
69667;BME280;66534;52.370;4.832;2023-03-01T02:35:56;103183.50;;;2.91;100.00
69667;BME280;66534;52.370;4.832;2023-03-01T02:36:31;103185.00;;;2.82;100.00
69667;BME280;66534;52.370;4.832;2023-03-01T02:37:09;103186.63;;;2.78;100.00
69667;BME280;66534;52.370;4.832;2023-03-01T02:37:44;103190.84;;;2.74;100.00
69667;BME280;66534;52.370;4.832;2023-03-01T02:38:15;103184.56;;;2.65;100.00
69667;BME280;66534;52.370;4.832;2023-03-01T02:38:46;103184.97;;;2.80;100.00
69667;BME280;66534;52.370;4.832;2023-03-01T02:39:22;103191.91;;;2.83;100.00
69667;BME280;66534;52.370;4.832;2023-03-01T02:40:02;103183.19;;;2.79;100.00
69667;BME280;66534;52.370;4.832;2023-03-01T02:40:36;103181.66;;;2.87;100.00
69667;BME280;66534;52.370;4.832;2023-03-01T02:41:08;103194.72;;;2.92;100.00
69667;BME280;66534;52.370;4.832;2023-03-01T02:41:45;103188.00;;;2.98;100.00
69667;BME280;66534;52.370;4.832;2023-03-01T02:42:21;103183.47;;;2.90;100.00
69667;BME280;66534;52.370;4.832;2023-03-01T02:42:55;103180.81;;;2.88;100.00
69667;BME280;66534;52.370;4.832;2023-03-01T02:43:27;103187.56;;;2.82;100.00
69667;BME280;66534;52.370;4.832;2023-03-01T02:44:01;103178.16;;;2.85;100.00
69667;BME280;66534;52.370;4.832;2023-03-01T02:44:32;103177.88;;;2.74;100.00
69667;BME280;66534;52.370;4.832;2023-03-01T02:45:03;103184.56;;;2.65;100.00
69667;BME280;66534;52.370;4.832;2023-03-01T02:45:33;103183.63;;;2.63;100.00
69667;BME280;66534;52.370;4.832;2023-03-01T02:46:06;103184.38;;;2.59;100.00
69667;BME280;66534;52.370;4.832;2023-03-01T02:46:49;103184.59;;;2.66;100.00
69667;BME280;66534;52.370;4.832;2023-03-01T02:47:21;103184.50;;;2.63;100.00
69667;BME280;66534;52.370;4.832;2023-03-01T02:47:55;103183.63;;;2.63;100.00
69667;BME280;66534;52.370;4.832;2023-03-01T02:48:26;103181.84;;;2.95;100.00
69667;BME280;66534;52.370;4.832;2023-03-01T02:48:57;103176.94;;;3.06;100.00
69667;BME280;66534;52.370;4.832;2023-03-01T02:49:32;103182.28;;;3.13;100.00
69667;BME280;66534;52.370;4.832;2023-03-01T02:50:13;103179.06;;;3.22;100.00
69667;BME280;66534;52.370;4.832;2023-03-01T02:51:01;103179.63;;;3.10;100.00
69667;BME280;66534;52.370;4.832;2023-03-01T02:51:45;103176.88;;;3.04;100.00
69667;BME280;66534;52.370;4.832;2023-03-01T02:52:33;103174.47;;;3.12;100.00
69667;BME280;66534;52.370;4.832;2023-03-01T02:53:21;103171.69;;;3.03;100.00
69667;BME280;66534;52.370;4.832;2023-03-01T02:54:52;103179.63;;;3.10;100.00
69667;BME280;66534;52.370;4.832;2023-03-01T02:55:29;103173.03;;;3.23;100.00
69667;BME280;66534;52.370;4.832;2023-03-01T02:56:00;103174.66;;;3.19;100.00
69667;BME280;66534;52.370;4.832;2023-03-01T02:56:31;103172.19;;;3.24;100.00
69667;BME280;66534;52.370;4.832;2023-03-01T02:57:01;103168.44;;;3.13;100.00
69667;BME280;66534;52.370;4.832;2023-03-01T02:57:33;103170.59;;;2.94;100.00
69667;BME280;66534;52.370;4.832;2023-03-01T02:58:05;103173.22;;;2.96;100.00
69667;BME280;66534;52.370;4.832;2023-03-01T02:58:36;103174.06;;;2.95;100.00